KBCT/BCT METAR and TAF weather

Enter ICAO airport designator
Station Type Date Time Source
KBCT METAR 2018/01/19 22:47 UTC NOAA

KBCT 192247Z 09010KT 10SM BKN046 19/10 A3021


Station Type Date Time Source
KBCT Decoded METAR 2018/01/19 22:47 UTC NOAA

Boca Raton, Boca Raton Airport, FL, United States (KBCT) 26-22-43N 080-06-28W
Jan 19, 2018 - 05:47 PM EST / 2018.01.19 2247 UTC
Wind: from the E (090 degrees) at 12 MPH (10 KT):0
Visibility: 10 mile(s):0
Sky conditions: mostly cloudy
Temperature: 66 F (19 C)
Dew Point: 50 F (10 C)
Relative Humidity: 55%
Pressure (altimeter): 30.21 in. Hg (1023 hPa)
ob: KBCT 192247Z 09010KT 10SM BKN046 19/10 A3021
cycle: 23

Station Type Date Time Source
KBCT TAF UTC NOAA

Error!


Example: see airport list